sensor_id;sensor_type;location;lat;lon;timestamp;P1;durP1;ratioP1;P2;durP2;ratioP2
59530;SDS011;45349;48.692;8.186;2023-09-07T00:01:48;3.80;;;2.33;;
59530;SDS011;45349;48.692;8.186;2023-09-07T00:04:19;4.20;;;2.43;;
59530;SDS011;45349;48.692;8.186;2023-09-07T00:06:47;7.57;;;2.67;;
59530;SDS011;45349;48.692;8.186;2023-09-07T00:09:14;7.07;;;2.60;;
59530;SDS011;45349;48.692;8.186;2023-09-07T00:11:43;3.57;;;2.27;;
59530;SDS011;45349;48.692;8.186;2023-09-07T00:14:10;3.47;;;2.47;;
59530;SDS011;45349;48.692;8.186;2023-09-07T00:16:36;5.10;;;2.33;;
59530;SDS011;45349;48.692;8.186;2023-09-07T00:19:05;4.30;;;2.30;;
59530;SDS011;45349;48.692;8.186;2023-09-07T00:21:33;3.63;;;2.07;;
59530;SDS011;45349;48.692;8.186;2023-09-07T00:24:05;3.40;;;2.40;;
59530;SDS011;45349;48.692;8.186;2023-09-07T00:26:32;4.97;;;2.20;;
59530;SDS011;45349;48.692;8.186;2023-09-07T00:29:02;2.30;;;1.80;;
59530;SDS011;45349;48.692;8.186;2023-09-07T00:31:29;3.57;;;2.07;;
59530;SDS011;45349;48.692;8.186;2023-09-07T00:33:55;3.93;;;2.20;;
59530;SDS011;45349;48.692;8.186;2023-09-07T00:36:22;3.30;;;2.33;;
59530;SDS011;45349;48.692;8.186;2023-09-07T00:38:50;2.60;;;2.10;;
59530;SDS011;45349;48.692;8.186;2023-09-07T00:41:16;2.93;;;2.17;;
59530;SDS011;45349;48.692;8.186;2023-09-07T00:43:43;3.97;;;2.00;;
59530;SDS011;45349;48.692;8.186;2023-09-07T00:46:10;3.60;;;2.30;;
59530;SDS011;45349;48.692;8.186;2023-09-07T00:48:37;3.67;;;2.20;;
59530;SDS011;45349;48.692;8.186;2023-09-07T00:51:04;2.73;;;2.10;;
59530;SDS011;45349;48.692;8.186;2023-09-07T00:53:31;4.23;;;2.10;;
59530;SDS011;45349;48.692;8.186;2023-09-07T00:56:00;2.33;;;2.13;;
59530;SDS011;45349;48.692;8.186;2023-09-07T00:58:28;6.57;;;2.37;;
59530;SDS011;45349;48.692;8.186;2023-09-07T01:00:55;3.23;;;2.30;;
59530;SDS011;45349;48.692;8.186;2023-09-07T01:03:21;4.10;;;2.20;;
59530;SDS011;45349;48.692;8.186;2023-09-07T01:05:51;4.43;;;2.53;;
59530;SDS011;45349;48.692;8.186;2023-09-07T01:08:23;3.73;;;2.40;;
59530;SDS011;45349;48.692;8.186;2023-09-07T01:10:52;7.60;;;2.30;;
59530;SDS011;45349;48.692;8.186;2023-09-07T01:13:20;2.80;;;2.27;;
59530;SDS011;45349;48.692;8.186;2023-09-07T01:15:47;4.60;;;2.40;;
59530;SDS011;45349;48.692;8.186;2023-09-07T01:18:14;5.07;;;3.00;;
59530;SDS011;45349;48.692;8.186;2023-09-07T01:20:42;3.00;;;2.67;;
59530;SDS011;45349;48.692;8.186;2023-09-07T01:23:13;4.83;;;3.27;;
59530;SDS011;45349;48.692;8.186;2023-09-07T01:25:40;3.50;;;2.87;;
59530;SDS011;45349;48.692;8.186;2023-09-07T01:28:07;2.97;;;2.57;;
59530;SDS011;45349;48.692;8.186;2023-09-07T01:30:35;4.33;;;2.47;;
59530;SDS011;45349;48.692;8.186;2023-09-07T01:33:02;4.27;;;2.70;;
59530;SDS011;45349;48.692;8.186;2023-09-07T01:35:29;3.47;;;2.63;;
59530;SDS011;45349;48.692;8.186;2023-09-07T01:37:57;4.63;;;2.90;;
59530;SDS011;45349;48.692;8.186;2023-09-07T01:40:25;5.40;;;2.80;;
59530;SDS011;45349;48.692;8.186;2023-09-07T01:42:52;2.97;;;2.63;;
59530;SDS011;45349;48.692;8.186;2023-09-07T01:45:18;5.40;;;2.60;;
59530;SDS011;45349;48.692;8.186;2023-09-07T01:47:45;4.00;;;2.60;;
59530;SDS011;45349;48.692;8.186;2023-09-07T01:50:12;3.83;;;2.97;;
59530;SDS011;45349;48.692;8.186;2023-09-07T01:52:39;2.97;;;2.33;;
59530;SDS011;45349;48.692;8.186;2023-09-07T01:55:06;9.27;;;3.03;;
59530;SDS011;45349;48.692;8.186;2023-09-07T01:57:35;4.50;;;2.87;;
59530;SDS011;45349;48.692;8.186;2023-09-07T02:00:02;3.30;;;2.50;;
59530;SDS011;45349;48.692;8.186;2023-09-07T02:02:38;6.63;;;2.80;;
59530;SDS011;45349;48.692;8.186;2023-09-07T02:05:05;3.17;;;2.83;;
59530;SDS011;45349;48.692;8.186;2023-09-07T02:07:33;3.90;;;3.13;;
59530;SDS011;45349;48.692;8.186;2023-09-07T02:09:59;5.00;;;2.90;;
59530;SDS011;45349;48.692;8.186;2023-09-07T02:12:26;3.60;;;2.53;;
59530;SDS011;45349;48.692;8.186;2023-09-07T02:14:54;5.50;;;2.70;;
59530;SDS011;45349;48.692;8.186;2023-09-07T02:17:21;4.60;;;2.97;;
59530;SDS011;45349;48.692;8.186;2023-09-07T02:19:48;3.83;;;3.03;;
59530;SDS011;45349;48.692;8.186;2023-09-07T02:22:15;3.00;;;2.53;;
59530;SDS011;45349;48.692;8.186;2023-09-07T02:24:42;5.13;;;3.43;;
59530;SDS011;45349;48.692;8.186;2023-09-07T02:27:08;4.00;;;3.07;;
59530;SDS011;45349;48.692;8.186;2023-09-07T02:29:35;4.43;;;2.70;;
59530;SDS011;45349;48.692;8.186;2023-09-07T02:32:04;3.90;;;3.00;;
59530;SDS011;45349;48.692;8.186;2023-09-07T02:34:31;4.33;;;2.70;;
59530;SDS011;45349;48.692;8.186;2023-09-07T02:37:02;3.50;;;2.80;;
59530;SDS011;45349;48.692;8.186;2023-09-07T02:39:29;5.07;;;2.97;;
59530;SDS011;45349;48.692;8.186;2023-09-07T02:41:55;3.17;;;2.63;;
59530;SDS011;45349;48.692;8.186;2023-09-07T02:44:22;5.57;;;2.90;;
59530;SDS011;45349;48.692;8.186;2023-09-07T02:46:48;4.67;;;3.07;;
59530;SDS011;45349;48.692;8.186;2023-09-07T02:49:16;5.70;;;3.10;;
59530;SDS011;45349;48.692;8.186;2023-09-07T02:51:43;4.20;;;3.00;;
59530;SDS011;45349;48.692;8.186;2023-09-07T02:54:10;4.17;;;3.27;;
59530;SDS011;45349;48.692;8.186;2023-09-07T02:56:36;4.13;;;3.33;;
59530;SDS011;45349;48.692;8.186;2023-09-07T02:59:05;3.47;;;2.97;;
59530;SDS011;45349;48.692;8.186;2023-09-07T03:01:32;5.37;;;2.80;;
59530;SDS011;45349;48.692;8.186;2023-09-07T03:04:05;6.80;;;3.10;;
59530;SDS011;45349;48.692;8.186;2023-09-07T03:06:34;4.30;;;3.10;;
59530;SDS011;45349;48.692;8.186;2023-09-07T03:09:05;3.20;;;2.73;;
59530;SDS011;45349;48.692;8.186;2023-09-07T03:11:36;4.90;;;3.20;;
59530;SDS011;45349;48.692;8.186;2023-09-07T03:14:06;3.67;;;3.03;;
59530;SDS011;45349;48.692;8.186;2023-09-07T03:16:33;3.40;;;2.97;;
59530;SDS011;45349;48.692;8.186;2023-09-07T03:19:06;3.97;;;3.20;;
59530;SDS011;45349;48.692;8.186;2023-09-07T03:21:32;4.27;;;3.07;;
59530;SDS011;45349;48.692;8.186;2023-09-07T03:24:07;5.17;;;3.07;;
59530;SDS011;45349;48.692;8.186;2023-09-07T03:26:33;4.17;;;2.70;;
59530;SDS011;45349;48.692;8.186;2023-09-07T03:29:05;5.07;;;2.93;;
59530;SDS011;45349;48.692;8.186;2023-09-07T03:31:32;3.73;;;3.10;;
59530;SDS011;45349;48.692;8.186;2023-09-07T03:34:02;3.27;;;2.77;;
59530;SDS011;45349;48.692;8.186;2023-09-07T03:36:30;3.27;;;2.97;;
59530;SDS011;45349;48.692;8.186;2023-09-07T03:38:57;4.93;;;2.90;;
59530;SDS011;45349;48.692;8.186;2023-09-07T03:41:25;5.73;;;3.17;;
59530;SDS011;45349;48.692;8.186;2023-09-07T03:43:56;5.70;;;3.30;;
59530;SDS011;45349;48.692;8.186;2023-09-07T03:46:23;3.93;;;3.17;;
59530;SDS011;45349;48.692;8.186;2023-09-07T03:48:50;4.97;;;3.40;;
59530;SDS011;45349;48.692;8.186;2023-09-07T03:51:17;3.70;;;3.03;;
59530;SDS011;45349;48.692;8.186;2023-09-07T03:53:44;4.93;;;3.30;;
59530;SDS011;45349;48.692;8.186;2023-09-07T03:56:11;3.63;;;3.30;;
59530;SDS011;45349;48.692;8.186;2023-09-07T03:58:39;6.77;;;3.13;;
59530;SDS011;45349;48.692;8.186;2023-09-07T04:01:06;5.20;;;3.30;;
59530;SDS011;45349;48.692;8.186;2023-09-07T04:03:32;5.57;;;3.53;;
59530;SDS011;45349;48.692;8.186;2023-09-07T04:05:59;4.33;;;3.13;;
59530;SDS011;45349;48.692;8.186;2023-09-07T04:08:27;4.57;;;2.97;;
59530;SDS011;45349;48.692;8.186;2023-09-07T04:10:53;4.27;;;3.23;;
59530;SDS011;45349;48.692;8.186;2023-09-07T04:13:20;3.80;;;3.40;;
59530;SDS011;45349;48.692;8.186;2023-09-07T04:15:48;6.50;;;3.57;;
59530;SDS011;45349;48.692;8.186;2023-09-07T04:18:15;4.43;;;3.50;;
59530;SDS011;45349;48.692;8.186;2023-09-07T04:20:43;5.30;;;3.90;;
59530;SDS011;45349;48.692;8.186;2023-09-07T04:23:11;5.37;;;3.27;;
59530;SDS011;45349;48.692;8.186;2023-09-07T04:25:37;7.60;;;3.30;;
59530;SDS011;45349;48.692;8.186;2023-09-07T04:28:05;5.67;;;3.57;;
59530;SDS011;45349;48.692;8.186;2023-09-07T04:30:32;4.57;;;3.70;;
59530;SDS011;45349;48.692;8.186;2023-09-07T04:33:00;5.83;;;3.73;;
59530;SDS011;45349;48.692;8.186;2023-09-07T04:35:28;5.27;;;4.03;;
59530;SDS011;45349;48.692;8.186;2023-09-07T04:37:56;6.17;;;3.40;;
59530;SDS011;45349;48.692;8.186;2023-09-07T04:40:23;6.30;;;3.87;;
59530;SDS011;45349;48.692;8.186;2023-09-07T04:42:50;4.27;;;3.73;;
59530;SDS011;45349;48.692;8.186;2023-09-07T04:45:17;5.03;;;4.23;;
59530;SDS011;45349;48.692;8.186;2023-09-07T04:47:44;5.60;;;4.73;;
59530;SDS011;45349;48.692;8.186;2023-09-07T04:50:13;9.53;;;4.90;;
59530;SDS011;45349;48.692;8.186;2023-09-07T04:52:39;7.53;;;4.90;;
59530;SDS011;45349;48.692;8.186;2023-09-07T04:55:06;6.47;;;5.10;;
59530;SDS011;45349;48.692;8.186;2023-09-07T04:57:35;5.23;;;4.53;;
59530;SDS011;45349;48.692;8.186;2023-09-07T05:00:02;6.90;;;4.60;;
59530;SDS011;45349;48.692;8.186;2023-09-07T05:02:30;9.87;;;4.17;;
59530;SDS011;45349;48.692;8.186;2023-09-07T05:04:57;9.10;;;4.10;;
59530;SDS011;45349;48.692;8.186;2023-09-07T05:07:25;10.00;;;4.20;;
59530;SDS011;45349;48.692;8.186;2023-09-07T05:09:52;6.30;;;4.43;;
59530;SDS011;45349;48.692;8.186;2023-09-07T05:12:19;5.03;;;4.10;;
59530;SDS011;45349;48.692;8.186;2023-09-07T05:14:45;9.57;;;4.03;;
59530;SDS011;45349;48.692;8.186;2023-09-07T05:17:12;5.63;;;3.93;;
59530;SDS011;45349;48.692;8.186;2023-09-07T05:19:39;6.57;;;4.20;;
59530;SDS011;45349;48.692;8.186;2023-09-07T05:22:05;5.60;;;3.93;;
59530;SDS011;45349;48.692;8.186;2023-09-07T05:24:33;7.77;;;4.30;;
59530;SDS011;45349;48.692;8.186;2023-09-07T05:27:00;11.33;;;4.20;;
59530;SDS011;45349;48.692;8.186;2023-09-07T05:29:28;7.83;;;4.30;;
59530;SDS011;45349;48.692;8.186;2023-09-07T05:31:55;6.30;;;3.97;;
59530;SDS011;45349;48.692;8.186;2023-09-07T05:34:23;6.67;;;4.23;;
59530;SDS011;45349;48.692;8.186;2023-09-07T05:36:49;12.93;;;5.20;;
59530;SDS011;45349;48.692;8.186;2023-09-07T05:39:16;6.53;;;4.47;;
59530;SDS011;45349;48.692;8.186;2023-09-07T05:41:44;6.53;;;4.60;;
59530;SDS011;45349;48.692;8.186;2023-09-07T05:44:11;5.90;;;4.03;;
59530;SDS011;45349;48.692;8.186;2023-09-07T05:46:38;8.40;;;4.20;;
59530;SDS011;45349;48.692;8.186;2023-09-07T05:49:05;7.07;;;4.20;;
59530;SDS011;45349;48.692;8.186;2023-09-07T05:51:32;5.53;;;4.20;;
59530;SDS011;45349;48.692;8.186;2023-09-07T05:54:02;8.20;;;4.80;;
59530;SDS011;45349;48.692;8.186;2023-09-07T05:56:29;6.43;;;4.53;;
59530;SDS011;45349;48.692;8.186;2023-09-07T05:58:59;5.33;;;4.30;;
59530;SDS011;45349;48.692;8.186;2023-09-07T06:01:26;5.37;;;3.97;;
59530;SDS011;45349;48.692;8.186;2023-09-07T06:03:53;5.83;;;3.90;;
59530;SDS011;45349;48.692;8.186;2023-09-07T06:06:20;7.37;;;4.50;;
59530;SDS011;45349;48.692;8.186;2023-09-07T06:08:47;6.50;;;4.57;;
59530;SDS011;45349;48.692;8.186;2023-09-07T06:11:13;5.67;;;4.47;;
59530;SDS011;45349;48.692;8.186;2023-09-07T06:13:40;12.17;;;4.77;;
59530;SDS011;45349;48.692;8.186;2023-09-07T06:16:08;6.97;;;5.13;;
59530;SDS011;45349;48.692;8.186;2023-09-07T06:18:35;8.43;;;5.10;;
59530;SDS011;45349;48.692;8.186;2023-09-07T06:21:01;7.40;;;5.00;;
59530;SDS011;45349;48.692;8.186;2023-09-07T06:23:29;7.37;;;4.90;;
59530;SDS011;45349;48.692;8.186;2023-09-07T06:25:56;7.97;;;5.63;;
59530;SDS011;45349;48.692;8.186;2023-09-07T06:28:23;7.57;;;5.20;;
59530;SDS011;45349;48.692;8.186;2023-09-07T06:30:50;6.47;;;5.70;;
59530;SDS011;45349;48.692;8.186;2023-09-07T06:33:19;11.30;;;6.17;;
59530;SDS011;45349;48.692;8.186;2023-09-07T06:35:47;11.77;;;5.80;;
59530;SDS011;45349;48.692;8.186;2023-09-07T06:38:14;10.67;;;6.00;;
59530;SDS011;45349;48.692;8.186;2023-09-07T06:40:46;9.37;;;5.83;;
59530;SDS011;45349;48.692;8.186;2023-09-07T06:43:14;15.20;;;6.43;;
59530;SDS011;45349;48.692;8.186;2023-09-07T06:45:41;11.50;;;5.63;;
59530;SDS011;45349;48.692;8.186;2023-09-07T06:48:08;5.83;;;4.93;;
59530;SDS011;45349;48.692;8.186;2023-09-07T06:50:36;10.53;;;5.23;;
59530;SDS011;45349;48.692;8.186;2023-09-07T06:53:03;8.40;;;5.93;;
59530;SDS011;45349;48.692;8.186;2023-09-07T06:55:29;7.73;;;5.50;;
59530;SDS011;45349;48.692;8.186;2023-09-07T06:57:56;7.43;;;4.90;;
59530;SDS011;45349;48.692;8.186;2023-09-07T07:00:25;10.00;;;5.17;;
59530;SDS011;45349;48.692;8.186;2023-09-07T07:02:52;11.83;;;5.50;;
59530;SDS011;45349;48.692;8.186;2023-09-07T07:05:19;6.40;;;4.63;;
59530;SDS011;45349;48.692;8.186;2023-09-07T07:07:48;7.73;;;5.00;;
59530;SDS011;45349;48.692;8.186;2023-09-07T07:10:15;7.83;;;5.20;;
59530;SDS011;45349;48.692;8.186;2023-09-07T07:12:42;9.13;;;5.50;;
59530;SDS011;45349;48.692;8.186;2023-09-07T07:15:09;8.13;;;6.57;;
59530;SDS011;45349;48.692;8.186;2023-09-07T07:17:37;9.17;;;6.03;;
59530;SDS011;45349;48.692;8.186;2023-09-07T07:20:04;7.50;;;5.50;;
59530;SDS011;45349;48.692;8.186;2023-09-07T07:22:32;7.20;;;5.03;;
59530;SDS011;45349;48.692;8.186;2023-09-07T07:25:02;7.10;;;4.80;;
59530;SDS011;45349;48.692;8.186;2023-09-07T07:27:31;5.67;;;4.80;;
59530;SDS011;45349;48.692;8.186;2023-09-07T07:29:57;7.53;;;4.20;;
59530;SDS011;45349;48.692;8.186;2023-09-07T07:32:24;6.90;;;5.13;;
59530;SDS011;45349;48.692;8.186;2023-09-07T07:34:51;6.00;;;4.60;;
59530;SDS011;45349;48.692;8.186;2023-09-07T07:37:18;9.13;;;4.63;;
59530;SDS011;45349;48.692;8.186;2023-09-07T07:39:44;8.20;;;4.90;;
59530;SDS011;45349;48.692;8.186;2023-09-07T07:42:14;6.83;;;4.53;;
59530;SDS011;45349;48.692;8.186;2023-09-07T07:44:41;7.83;;;4.57;;
59530;SDS011;45349;48.692;8.186;2023-09-07T07:47:08;6.57;;;5.10;;
59530;SDS011;45349;48.692;8.186;2023-09-07T07:49:35;7.67;;;4.87;;
59530;SDS011;45349;48.692;8.186;2023-09-07T07:52:02;8.77;;;4.43;;
59530;SDS011;45349;48.692;8.186;2023-09-07T07:54:29;9.33;;;4.57;;
59530;SDS011;45349;48.692;8.186;2023-09-07T07:56:59;6.20;;;4.93;;
59530;SDS011;45349;48.692;8.186;2023-09-07T07:59:27;8.20;;;4.13;;
59530;SDS011;45349;48.692;8.186;2023-09-07T08:01:54;4.67;;;4.17;;
59530;SDS011;45349;48.692;8.186;2023-09-07T08:04:21;7.17;;;4.60;;
59530;SDS011;45349;48.692;8.186;2023-09-07T08:06:47;5.97;;;4.30;;
59530;SDS011;45349;48.692;8.186;2023-09-07T08:09:14;5.00;;;4.13;;
59530;SDS011;45349;48.692;8.186;2023-09-07T08:11:41;10.33;;;4.80;;
59530;SDS011;45349;48.692;8.186;2023-09-07T08:14:09;6.73;;;4.10;;
59530;SDS011;45349;48.692;8.186;2023-09-07T08:16:37;8.47;;;4.27;;
59530;SDS011;45349;48.692;8.186;2023-09-07T08:19:06;8.33;;;4.40;;
59530;SDS011;45349;48.692;8.186;2023-09-07T08:21:33;5.83;;;4.07;;
59530;SDS011;45349;48.692;8.186;2023-09-07T08:24:05;6.63;;;4.43;;
59530;SDS011;45349;48.692;8.186;2023-09-07T08:26:32;8.30;;;5.47;;
59530;SDS011;45349;48.692;8.186;2023-09-07T08:29:02;6.90;;;5.00;;
59530;SDS011;45349;48.692;8.186;2023-09-07T08:31:30;6.53;;;4.80;;
59530;SDS011;45349;48.692;8.186;2023-09-07T08:34:04;7.73;;;4.73;;
59530;SDS011;45349;48.692;8.186;2023-09-07T08:36:34;6.20;;;5.10;;
59530;SDS011;45349;48.692;8.186;2023-09-07T08:39:05;7.33;;;5.17;;
59530;SDS011;45349;48.692;8.186;2023-09-07T08:41:36;9.23;;;5.30;;
59530;SDS011;45349;48.692;8.186;2023-09-07T08:44:06;7.83;;;5.10;;
59530;SDS011;45349;48.692;8.186;2023-09-07T08:46:34;7.00;;;5.47;;
59530;SDS011;45349;48.692;8.186;2023-09-07T08:49:07;8.23;;;5.03;;
59530;SDS011;45349;48.692;8.186;2023-09-07T08:51:34;7.13;;;5.30;;
59530;SDS011;45349;48.692;8.186;2023-09-07T08:54:05;9.90;;;5.37;;
59530;SDS011;45349;48.692;8.186;2023-09-07T08:56:33;8.37;;;5.50;;
59530;SDS011;45349;48.692;8.186;2023-09-07T08:59:05;5.30;;;4.50;;
59530;SDS011;45349;48.692;8.186;2023-09-07T09:01:32;9.10;;;4.90;;
59530;SDS011;45349;48.692;8.186;2023-09-07T09:03:58;5.67;;;4.90;;
59530;SDS011;45349;48.692;8.186;2023-09-07T09:06:26;9.07;;;6.23;;
59530;SDS011;45349;48.692;8.186;2023-09-07T09:08:55;10.13;;;6.30;;
59530;SDS011;45349;48.692;8.186;2023-09-07T09:11:22;6.93;;;5.80;;
59530;SDS011;45349;48.692;8.186;2023-09-07T09:13:51;8.70;;;5.27;;
59530;SDS011;45349;48.692;8.186;2023-09-07T09:16:19;7.90;;;4.60;;
59530;SDS011;45349;48.692;8.186;2023-09-07T09:18:49;9.20;;;5.53;;
59530;SDS011;45349;48.692;8.186;2023-09-07T09:21:17;7.20;;;5.00;;
59530;SDS011;45349;48.692;8.186;2023-09-07T09:23:47;5.97;;;4.73;;
59530;SDS011;45349;48.692;8.186;2023-09-07T09:26:15;8.03;;;5.80;;
59530;SDS011;45349;48.692;8.186;2023-09-07T09:28:42;7.87;;;5.60;;
59530;SDS011;45349;48.692;8.186;2023-09-07T09:31:10;8.50;;;5.20;;
59530;SDS011;45349;48.692;8.186;2023-09-07T09:33:37;7.47;;;5.50;;
59530;SDS011;45349;48.692;8.186;2023-09-07T09:36:05;13.83;;;6.27;;
59530;SDS011;45349;48.692;8.186;2023-09-07T09:38:32;10.47;;;5.83;;
59530;SDS011;45349;48.692;8.186;2023-09-07T09:41:00;8.20;;;5.30;;
59530;SDS011;45349;48.692;8.186;2023-09-07T09:43:28;7.63;;;6.00;;
59530;SDS011;45349;48.692;8.186;2023-09-07T09:45:55;7.97;;;5.47;;
59530;SDS011;45349;48.692;8.186;2023-09-07T09:48:23;11.67;;;5.83;;
59530;SDS011;45349;48.692;8.186;2023-09-07T09:50:50;6.17;;;5.17;;
59530;SDS011;45349;48.692;8.186;2023-09-07T09:53:17;5.70;;;4.83;;
59530;SDS011;45349;48.692;8.186;2023-09-07T09:55:45;6.07;;;5.00;;
59530;SDS011;45349;48.692;8.186;2023-09-07T09:58:13;6.97;;;4.93;;
59530;SDS011;45349;48.692;8.186;2023-09-07T10:00:40;7.03;;;4.73;;
59530;SDS011;45349;48.692;8.186;2023-09-07T10:03:10;9.00;;;4.87;;
59530;SDS011;45349;48.692;8.186;2023-09-07T10:05:40;7.23;;;4.90;;
59530;SDS011;45349;48.692;8.186;2023-09-07T10:08:08;8.73;;;4.50;;
59530;SDS011;45349;48.692;8.186;2023-09-07T10:10:38;4.80;;;4.10;;
59530;SDS011;45349;48.692;8.186;2023-09-07T10:13:07;8.03;;;4.10;;
59530;SDS011;45349;48.692;8.186;2023-09-07T10:15:35;6.60;;;4.67;;
59530;SDS011;45349;48.692;8.186;2023-09-07T10:18:04;5.43;;;4.23;;
59530;SDS011;45349;48.692;8.186;2023-09-07T10:20:52;5.93;;;4.40;;
59530;SDS011;45349;48.692;8.186;2023-09-07T10:23:21;4.83;;;4.23;;
59530;SDS011;45349;48.692;8.186;2023-09-07T10:25:49;6.37;;;4.10;;
59530;SDS011;45349;48.692;8.186;2023-09-07T10:28:20;5.37;;;4.20;;
59530;SDS011;45349;48.692;8.186;2023-09-07T10:31:02;5.03;;;4.23;;
59530;SDS011;45349;48.692;8.186;2023-09-07T10:33:30;7.73;;;4.20;;
59530;SDS011;45349;48.692;8.186;2023-09-07T10:35:57;7.23;;;4.03;;
59530;SDS011;45349;48.692;8.186;2023-09-07T10:38:24;5.00;;;3.90;;
59530;SDS011;45349;48.692;8.186;2023-09-07T10:40:55;5.67;;;3.80;;
59530;SDS011;45349;48.692;8.186;2023-09-07T10:43:23;6.17;;;4.10;;
59530;SDS011;45349;48.692;8.186;2023-09-07T10:45:50;7.07;;;4.20;;
59530;SDS011;45349;48.692;8.186;2023-09-07T10:48:18;6.30;;;4.27;;
59530;SDS011;45349;48.692;8.186;2023-09-07T10:50:45;8.87;;;4.27;;
59530;SDS011;45349;48.692;8.186;2023-09-07T10:53:13;4.57;;;4.03;;
59530;SDS011;45349;48.692;8.186;2023-09-07T10:55:40;8.07;;;4.70;;
59530;SDS011;45349;48.692;8.186;2023-09-07T10:58:08;5.93;;;3.90;;
59530;SDS011;45349;48.692;8.186;2023-09-07T11:00:35;6.53;;;4.20;;
59530;SDS011;45349;48.692;8.186;2023-09-07T11:03:08;4.90;;;3.80;;
59530;SDS011;45349;48.692;8.186;2023-09-07T11:08:06;4.37;;;3.83;;
59530;SDS011;45349;48.692;8.186;2023-09-07T11:10:34;4.37;;;3.90;;
59530;SDS011;45349;48.692;8.186;2023-09-07T11:13:03;5.17;;;3.93;;
59530;SDS011;45349;48.692;8.186;2023-09-07T11:15:31;7.17;;;4.30;;
59530;SDS011;45349;48.692;8.186;2023-09-07T11:17:58;4.90;;;4.07;;
59530;SDS011;45349;48.692;8.186;2023-09-07T11:20:30;5.00;;;4.20;;
59530;SDS011;45349;48.692;8.186;2023-09-07T11:22:58;6.57;;;4.30;;
59530;SDS011;45349;48.692;8.186;2023-09-07T11:25:25;6.10;;;4.30;;
59530;SDS011;45349;48.692;8.186;2023-09-07T11:27:52;7.63;;;4.40;;
59530;SDS011;45349;48.692;8.186;2023-09-07T11:30:20;9.13;;;5.30;;
59530;SDS011;45349;48.692;8.186;2023-09-07T11:32:47;5.40;;;4.70;;
59530;SDS011;45349;48.692;8.186;2023-09-07T11:35:13;5.00;;;4.47;;
59530;SDS011;45349;48.692;8.186;2023-09-07T11:37:41;6.30;;;4.40;;
59530;SDS011;45349;48.692;8.186;2023-09-07T11:40:09;5.60;;;4.90;;
59530;SDS011;45349;48.692;8.186;2023-09-07T11:42:37;5.13;;;4.37;;
59530;SDS011;45349;48.692;8.186;2023-09-07T11:45:06;6.83;;;4.70;;
59530;SDS011;45349;48.692;8.186;2023-09-07T11:47:34;4.80;;;4.30;;
59530;SDS011;45349;48.692;8.186;2023-09-07T11:50:02;6.67;;;4.83;;
59530;SDS011;45349;48.692;8.186;2023-09-07T11:52:29;7.10;;;4.70;;
59530;SDS011;45349;48.692;8.186;2023-09-07T11:54:55;8.90;;;4.57;;
59530;SDS011;45349;48.692;8.186;2023-09-07T11:57:23;11.47;;;4.40;;
59530;SDS011;45349;48.692;8.186;2023-09-07T11:59:50;11.10;;;4.63;;
59530;SDS011;45349;48.692;8.186;2023-09-07T12:02:17;6.50;;;4.67;;
59530;SDS011;45349;48.692;8.186;2023-09-07T12:04:46;6.17;;;4.27;;
59530;SDS011;45349;48.692;8.186;2023-09-07T12:07:12;5.87;;;3.70;;
59530;SDS011;45349;48.692;8.186;2023-09-07T12:09:39;7.63;;;4.33;;
59530;SDS011;45349;48.692;8.186;2023-09-07T12:12:06;4.90;;;4.37;;
59530;SDS011;45349;48.692;8.186;2023-09-07T12:14:34;4.87;;;4.33;;
59530;SDS011;45349;48.692;8.186;2023-09-07T12:17:01;7.10;;;4.70;;
59530;SDS011;45349;48.692;8.186;2023-09-07T12:19:28;8.17;;;5.00;;
59530;SDS011;45349;48.692;8.186;2023-09-07T12:21:55;5.33;;;4.83;;
59530;SDS011;45349;48.692;8.186;2023-09-07T12:24:21;8.23;;;4.33;;
59530;SDS011;45349;48.692;8.186;2023-09-07T12:26:48;5.07;;;4.53;;
59530;SDS011;45349;48.692;8.186;2023-09-07T12:29:14;7.50;;;4.70;;
59530;SDS011;45349;48.692;8.186;2023-09-07T12:31:42;6.67;;;4.63;;
59530;SDS011;45349;48.692;8.186;2023-09-07T12:34:10;7.73;;;4.63;;
59530;SDS011;45349;48.692;8.186;2023-09-07T12:36:37;8.63;;;4.73;;
59530;SDS011;45349;48.692;8.186;2023-09-07T12:39:05;7.60;;;5.00;;
59530;SDS011;45349;48.692;8.186;2023-09-07T12:41:32;5.03;;;4.53;;
59530;SDS011;45349;48.692;8.186;2023-09-07T12:43:59;4.90;;;4.40;;
59530;SDS011;45349;48.692;8.186;2023-09-07T12:46:25;7.60;;;4.67;;
59530;SDS011;45349;48.692;8.186;2023-09-07T12:48:53;7.83;;;4.60;;
59530;SDS011;45349;48.692;8.186;2023-09-07T12:51:20;8.17;;;4.80;;
59530;SDS011;45349;48.692;8.186;2023-09-07T12:53:47;6.50;;;5.03;;
59530;SDS011;45349;48.692;8.186;2023-09-07T12:56:13;6.63;;;5.00;;
59530;SDS011;45349;48.692;8.186;2023-09-07T12:58:40;5.80;;;5.30;;
59530;SDS011;45349;48.692;8.186;2023-09-07T13:01:07;8.93;;;5.47;;
59530;SDS011;45349;48.692;8.186;2023-09-07T13:03:35;6.20;;;4.80;;
59530;SDS011;45349;48.692;8.186;2023-09-07T13:06:03;7.93;;;5.30;;
59530;SDS011;45349;48.692;8.186;2023-09-07T13:08:29;6.27;;;4.63;;
59530;SDS011;45349;48.692;8.186;2023-09-07T13:10:56;6.70;;;4.97;;
59530;SDS011;45349;48.692;8.186;2023-09-07T13:13:23;6.63;;;5.20;;
59530;SDS011;45349;48.692;8.186;2023-09-07T13:15:51;6.07;;;5.10;;
59530;SDS011;45349;48.692;8.186;2023-09-07T13:18:17;8.23;;;5.43;;
59530;SDS011;45349;48.692;8.186;2023-09-07T13:20:44;8.73;;;5.50;;
59530;SDS011;45349;48.692;8.186;2023-09-07T13:23:14;10.43;;;5.87;;
59530;SDS011;45349;48.692;8.186;2023-09-07T13:25:41;8.53;;;5.40;;
59530;SDS011;45349;48.692;8.186;2023-09-07T13:28:08;5.73;;;5.10;;
59530;SDS011;45349;48.692;8.186;2023-09-07T13:30:34;7.17;;;5.73;;
59530;SDS011;45349;48.692;8.186;2023-09-07T13:33:01;7.10;;;5.67;;
59530;SDS011;45349;48.692;8.186;2023-09-07T13:35:28;8.07;;;6.00;;
59530;SDS011;45349;48.692;8.186;2023-09-07T13:37:54;7.10;;;5.57;;
59530;SDS011;45349;48.692;8.186;2023-09-07T13:40:22;7.30;;;5.93;;
59530;SDS011;45349;48.692;8.186;2023-09-07T13:42:50;6.87;;;5.87;;
59530;SDS011;45349;48.692;8.186;2023-09-07T13:45:16;8.13;;;5.63;;
59530;SDS011;45349;48.692;8.186;2023-09-07T13:47:43;8.57;;;6.60;;
59530;SDS011;45349;48.692;8.186;2023-09-07T13:50:10;10.37;;;6.30;;
59530;SDS011;45349;48.692;8.186;2023-09-07T13:52:37;6.67;;;5.93;;
59530;SDS011;45349;48.692;8.186;2023-09-07T13:55:04;6.53;;;5.77;;
59530;SDS011;45349;48.692;8.186;2023-09-07T13:57:33;6.37;;;5.77;;
59530;SDS011;45349;48.692;8.186;2023-09-07T14:00:00;9.37;;;6.20;;
59530;SDS011;45349;48.692;8.186;2023-09-07T14:02:29;8.35;;;5.95;;
59530;SDS011;45349;48.692;8.186;2023-09-07T14:04:57;6.97;;;5.53;;
59530;SDS011;45349;48.692;8.186;2023-09-07T14:07:24;6.10;;;5.50;;
59530;SDS011;45349;48.692;8.186;2023-09-07T14:09:51;6.47;;;5.80;;
59530;SDS011;45349;48.692;8.186;2023-09-07T14:12:17;7.63;;;6.10;;
59530;SDS011;45349;48.692;8.186;2023-09-07T14:14:45;8.18;;;6.43;;
59530;SDS011;45349;48.692;8.186;2023-09-07T14:17:12;6.30;;;5.75;;
59530;SDS011;45349;48.692;8.186;2023-09-07T14:19:38;6.97;;;5.50;;
59530;SDS011;45349;48.692;8.186;2023-09-07T14:22:05;8.07;;;6.30;;
59530;SDS011;45349;48.692;8.186;2023-09-07T14:24:32;7.35;;;6.18;;
59530;SDS011;45349;48.692;8.186;2023-09-07T14:26:58;10.13;;;6.07;;
59530;SDS011;45349;48.692;8.186;2023-09-07T14:29:25;8.37;;;5.90;;
59530;SDS011;45349;48.692;8.186;2023-09-07T14:31:55;11.47;;;6.30;;
59530;SDS011;45349;48.692;8.186;2023-09-07T14:34:22;7.63;;;6.83;;
59530;SDS011;45349;48.692;8.186;2023-09-07T14:36:49;7.03;;;5.93;;
59530;SDS011;45349;48.692;8.186;2023-09-07T14:39:15;7.33;;;6.50;;
59530;SDS011;45349;48.692;8.186;2023-09-07T14:41:48;10.18;;;6.78;;
59530;SDS011;45349;48.692;8.186;2023-09-07T14:44:15;10.63;;;6.80;;
59530;SDS011;45349;48.692;8.186;2023-09-07T14:46:41;9.00;;;6.30;;
59530;SDS011;45349;48.692;8.186;2023-09-07T14:49:09;9.35;;;6.43;;
59530;SDS011;45349;48.692;8.186;2023-09-07T14:51:36;6.93;;;6.22;;
59530;SDS011;45349;48.692;8.186;2023-09-07T14:54:05;7.20;;;5.77;;